| time (UTC) | temp C | wind direction | speed KPH | gust KPH | rain 1hr cm | rain 24hr cm | rain mn cm | humidity % | barometer mb |
| 20260507131448 | 25 | 27 | 8.0 | 17.7 | 0.00 | 0.00 | 0.00 | 84 | 1012.0 |
| 20260507131347 | 25 | 27 | 8.0 | 17.7 | 0.00 | 0.00 | 0.00 | 84 | 1012.0 |
| 20260507125447 | 25 | 27 | 9.7 | 17.7 | 0.00 | 0.00 | 0.00 | 84 | 1011.0 |
| 20260507125346 | 25 | 27 | 9.7 | 17.7 | 0.00 | 0.00 | 0.00 | 84 | 1011.0 |
| 20260507123446 | 24 | 39 | 8.0 | 8.0 | 0.00 | 0.00 | 0.00 | 88 | 1011.0 |
| 20260507123346 | 24 | 39 | 8.0 | 8.0 | 0.00 | 0.00 | 0.00 | 88 | 1011.0 |
| 20260507121445 | 25 | 39 | 8.0 | 8.0 | 0.00 | 0.00 | 0.00 | 88 | 1012.0 |
| 20260507121345 | 25 | 39 | 8.0 | 8.0 | 0.00 | 0.00 | 0.00 | 88 | 1012.0 |
| 20260507115444 | 25 | 39 | 8.0 | 9.7 | 0.00 | 0.00 | 0.00 | 88 | 1011.0 |
| 20260507115344 | 25 | 39 | 8.0 | 9.7 | 0.00 | 0.00 | 0.00 | 88 | 1011.0 |
| 20260507113443 | 23 | 49 | 8.0 | 11.3 | 0.00 | 0.00 | 0.00 | 91 | 1011.0 |
| 20260507113343 | 23 | 49 | 8.0 | 11.3 | 0.00 | 0.00 | 0.00 | 91 | 1011.0 |
| 20260507111440 | 23 | 49 | 8.0 | 11.3 | 0.00 | 0.00 | 0.00 | 91 | 1011.0 |
| 20260507111340 | 23 | 49 | 8.0 | 11.3 | 0.00 | 0.00 | 0.00 | 91 | 1011.0 |
| 20260507105439 | 24 | 49 | 8.0 | 11.3 | 0.00 | 0.00 | 0.00 | 91 | 1010.0 |
| 20260507105339 | 24 | 49 | 8.0 | 11.3 | 0.00 | 0.00 | 0.00 | 91 | 1010.0 |
| 20260507103438 | 25 | 49 | 8.0 | 11.3 | 0.00 | 0.00 | 0.00 | 91 | 1010.0 |
| 20260507103338 | 25 | 49 | 8.0 | 11.3 | 0.00 | 0.00 | 0.00 | 91 | 1010.0 |
| 20260507101437 | 25 | 49 | 8.0 | 11.3 | 0.00 | 0.00 | 0.00 | 91 | 1011.0 |
| 20260507101337 | 25 | 49 | 8.0 | 11.3 | 0.00 | 0.00 | 0.00 | 91 | 1011.0 |
| 20260507095436 | 22 | 55 | 8.0 | 11.3 | 0.00 | 0.00 | 0.00 | 92 | 1010.0 |
| 20260507095336 | 22 | 55 | 8.0 | 11.3 | 0.00 | 0.00 | 0.00 | 92 | 1010.0 |
| 20260507093436 | 23 | 55 | 8.0 | 11.3 | 0.00 | 0.00 | 0.00 | 92 | 1010.0 |
| 20260507093335 | 23 | 55 | 8.0 | 11.3 | 0.00 | 0.00 | 0.00 | 92 | 1010.0 |
| 20260507091434 | 23 | 55 | 8.0 | 11.3 | 0.00 | 0.00 | 0.00 | 92 | 1011.0 |
| 20260507091335 | 23 | 55 | 8.0 | 11.3 | 0.00 | 0.00 | 0.00 | 92 | 1011.0 |
| 20260507085434 | 24 | 55 | 8.0 | 11.3 | 0.00 | 0.00 | 0.00 | 92 | 1010.0 |
| 20260507085333 | 24 | 55 | 8.0 | 11.3 | 0.00 | 0.00 | 0.00 | 92 | 1010.0 |
| 20260507083433 | 25 | 55 | 8.0 | 11.3 | 0.00 | 0.00 | 0.00 | 92 | 1010.0 |
| 20260507083333 | 25 | 55 | 8.0 | 11.3 | 0.00 | 0.00 | 0.00 | 92 | 1010.0 |
| 20260507081432 | 25 | 55 | 8.0 | 11.3 | 0.00 | 0.00 | 0.00 | 92 | 1011.0 |
| 20260507081331 | 25 | 55 | 8.0 | 11.3 | 0.00 | 0.00 | 0.00 | 92 | 1011.0 |
| 20260507075431 | 22 | 59 | 6.4 | 8.0 | 0.00 | 0.00 | 0.00 | 86 | 1010.0 |
| 20260507075331 | 22 | 59 | 6.4 | 8.0 | 0.00 | 0.00 | 0.00 | 86 | 1010.0 |
| 20260507073430 | 23 | 59 | 6.4 | 8.0 | 0.00 | 0.00 | 0.00 | 86 | 1010.0 |
| 20260507073330 | 23 | 59 | 6.4 | 8.0 | 0.00 | 0.00 | 0.00 | 86 | 1010.0 |
| 20260507071429 | 23 | 59 | 6.4 | 8.0 | 0.00 | 0.00 | 0.00 | 86 | 1012.0 |
| 20260507071329 | 23 | 59 | 6.4 | 8.0 | 0.00 | 0.00 | 0.00 | 86 | 1012.0 |
| 20260507065428 | 24 | 59 | 6.4 | 8.0 | 0.00 | 0.00 | 0.00 | 86 | 1011.0 |
| 20260507065328 | 24 | 59 | 6.4 | 8.0 | 0.00 | 0.00 | 0.00 | 86 | 1011.0 |
| 20260507063427 | 25 | 59 | 6.4 | 8.0 | 0.00 | 0.00 | 0.00 | 86 | 1011.0 |
| 20260507063327 | 25 | 59 | 6.4 | 8.0 | 0.00 | 0.00 | 0.00 | 86 | 1011.0 |
| 20260507061426 | 25 | 59 | 6.4 | 8.0 | 0.00 | 0.00 | 0.00 | 86 | 1012.0 |
| 20260507061326 | 25 | 59 | 6.4 | 8.0 | 0.00 | 0.00 | 0.00 | 86 | 1012.0 |
| 20260507055425 | 22 | 50 | 8.0 | 11.3 | 0.00 | 0.00 | 0.00 | 88 | 1011.0 |
| 20260507055325 | 22 | 50 | 8.0 | 11.3 | 0.00 | 0.00 | 0.00 | 88 | 1011.0 |
| 20260507053424 | 23 | 50 | 8.0 | 11.3 | 0.00 | 0.00 | 0.00 | 88 | 1011.0 |
| 20260507053324 | 23 | 50 | 8.0 | 11.3 | 0.00 | 0.00 | 0.00 | 88 | 1011.0 |
| 20260507051423 | 23 | 50 | 8.0 | 11.3 | 0.00 | 0.00 | 0.00 | 88 | 1013.0 |
| 20260507051323 | 23 | 50 | 8.0 | 11.3 | 0.00 | 0.00 | 0.00 | 88 | 1013.0 |
| 20260507045422 | 24 | 50 | 8.0 | 11.3 | 0.00 | 0.00 | 0.00 | 88 | 1012.0 |
| 20260507045322 | 24 | 50 | 8.0 | 11.3 | 0.00 | 0.00 | 0.00 | 88 | 1012.0 |
| 20260507043421 | 25 | 50 | 8.0 | 11.3 | 0.00 | 0.00 | 0.00 | 88 | 1012.0 |
| 20260507043321 | 25 | 50 | 8.0 | 11.3 | 0.00 | 0.00 | 0.00 | 88 | 1012.0 |
| 20260507041420 | 25 | 50 | 8.0 | 11.3 | 0.00 | 0.00 | 0.00 | 88 | 1013.0 |
| 20260507041320 | 25 | 50 | 8.0 | 11.3 | 0.00 | 0.00 | 0.00 | 88 | 1013.0 |
| 20260507035419 | 23 | 49 | 8.0 | 11.3 | 0.00 | 0.00 | 0.00 | 89 | 1012.0 |
| 20260507035319 | 23 | 49 | 8.0 | 11.3 | 0.00 | 0.00 | 0.00 | 89 | 1012.0 |
| 20260507033418 | 23 | 49 | 8.0 | 11.3 | 0.00 | 0.00 | 0.00 | 89 | 1012.0 |
| 20260507033318 | 23 | 49 | 8.0 | 11.3 | 0.00 | 0.00 | 0.00 | 89 | 1012.0 |
| 20260507031417 | 24 | 49 | 8.0 | 11.3 | 0.00 | 0.00 | 0.00 | 89 | 1012.0 |
| 20260507031317 | 24 | 49 | 8.0 | 11.3 | 0.00 | 0.00 | 0.00 | 89 | 1012.0 |
| 20260507025416 | 25 | 49 | 8.0 | 11.3 | 0.00 | 0.00 | 0.00 | 89 | 1012.0 |
| 20260507025316 | 25 | 49 | 8.0 | 11.3 | 0.00 | 0.00 | 0.00 | 89 | 1012.0 |
| 20260507023413 | 25 | 49 | 8.0 | 11.3 | 0.00 | 0.00 | 0.00 | 89 | 1012.0 |
| 20260507023312 | 25 | 49 | 8.0 | 11.3 | 0.00 | 0.00 | 0.00 | 89 | 1012.0 |
| 20260507021412 | 23 | 41 | 11.3 | 17.7 | 0.00 | 0.00 | 0.00 | 87 | 1012.0 |
| 20260507021312 | 23 | 41 | 11.3 | 17.7 | 0.00 | 0.00 | 0.00 | 87 | 1012.0 |
| 20260507015411 | 23 | 41 | 11.3 | 17.7 | 0.00 | 0.00 | 0.00 | 87 | 1011.0 |
| 20260507015310 | 23 | 41 | 11.3 | 17.7 | 0.00 | 0.00 | 0.00 | 87 | 1011.0 |
| 20260507013409 | 24 | 41 | 11.3 | 17.7 | 0.00 | 0.00 | 0.00 | 87 | 1011.0 |
| 20260507013309 | 24 | 41 | 11.3 | 17.7 | 0.00 | 0.00 | 0.00 | 87 | 1011.0 |
| 20260507011408 | 25 | 41 | 11.3 | 17.7 | 0.00 | 0.00 | 0.00 | 87 | 1011.0 |
| 20260507011308 | 25 | 41 | 11.3 | 17.7 | 0.00 | 0.00 | 0.00 | 87 | 1011.0 |
| 20260507005407 | 25 | 41 | 11.3 | 17.7 | 0.00 | 0.00 | 0.00 | 87 | 1010.0 |
| 20260507005307 | 25 | 41 | 11.3 | 17.7 | 0.00 | 0.00 | 0.00 | 87 | 1010.0 |
| 20260507003406 | 23 | 31 | 12.9 | 22.5 | 0.00 | 0.00 | 0.00 | 85 | 1010.0 |
| 20260507003306 | 23 | 31 | 12.9 | 22.5 | 0.00 | 0.00 | 0.00 | 85 | 1010.0 |
| 20260507001405 | 23 | 31 | 12.9 | 22.5 | 0.00 | 0.00 | 0.00 | 85 | 1010.0 |
| 20260507001305 | 23 | 31 | 12.9 | 22.5 | 0.00 | 0.00 | 0.00 | 85 | 1010.0 |
| 20260506235404 | 24 | 31 | 12.9 | 22.5 | 0.00 | 0.00 | 0.00 | 85 | 1010.0 |
| 20260506235306 | 24 | 31 | 12.9 | 22.5 | 0.00 | 0.00 | 0.00 | 85 | 1010.0 |
| 20260506233402 | 25 | 31 | 12.9 | 22.5 | 0.00 | 0.00 | 0.00 | 85 | 1010.0 |
| 20260506233302 | 25 | 31 | 12.9 | 22.5 | 0.00 | 0.00 | 0.00 | 85 | 1010.0 |
| 20260506231401 | 25 | 31 | 12.9 | 22.5 | 0.00 | 0.00 | 0.00 | 85 | 1009.0 |
| 20260506231301 | 25 | 31 | 12.9 | 22.5 | 0.00 | 0.00 | 0.00 | 85 | 1009.0 |
| 20260506225400 | 23 | 9 | 11.3 | 16.1 | 0.00 | 0.00 | 0.00 | 69 | 1009.0 |
| 20260506225300 | 23 | 9 | 11.3 | 16.1 | 0.00 | 0.00 | 0.00 | 69 | 1009.0 |
| 20260506223359 | 24 | 9 | 11.3 | 16.1 | 0.00 | 0.00 | 0.00 | 69 | 1009.0 |
| 20260506223259 | 24 | 9 | 11.3 | 16.1 | 0.00 | 0.00 | 0.00 | 69 | 1009.0 |
| 20260506221358 | 25 | 9 | 11.3 | 16.1 | 0.00 | 0.00 | 0.00 | 69 | 1009.0 |
| 20260506221258 | 25 | 9 | 11.3 | 16.1 | 0.00 | 0.00 | 0.00 | 69 | 1009.0 |
| 20260506215357 | 25 | 9 | 11.3 | 16.1 | 0.00 | 0.00 | 0.00 | 69 | 1009.0 |
| 20260506215257 | 25 | 9 | 11.3 | 16.1 | 0.00 | 0.00 | 0.00 | 69 | 1009.0 |
| 20260506213356 | 26 | 9 | 11.3 | 16.1 | 0.00 | 0.00 | 0.00 | 69 | 1009.0 |
| 20260506213256 | 26 | 9 | 11.3 | 16.1 | 0.00 | 0.00 | 0.00 | 69 | 1009.0 |
| 20260506211355 | 26 | 9 | 11.3 | 16.1 | 0.00 | 0.00 | 0.00 | 69 | 1010.0 |
| 20260506211255 | 26 | 9 | 11.3 | 16.1 | 0.00 | 0.00 | 0.00 | 69 | 1010.0 |
| 20260506205354 | 27 | 9 | 11.3 | 16.1 | 0.00 | 0.00 | 0.00 | 69 | 1009.0 |
| 20260506205254 | 27 | 9 | 11.3 | 16.1 | 0.00 | 0.00 | 0.00 | 69 | 1009.0 |
| 20260506203353 | 27 | 9 | 11.3 | 16.1 | 0.00 | 0.00 | 0.00 | 69 | 1009.0 |
| 20260506203253 | 27 | 9 | 11.3 | 16.1 | 0.00 | 0.00 | 0.00 | 69 | 1009.0 |
| 20260506201351 | 28 | 9 | 11.3 | 16.1 | 0.00 | 0.00 | 0.00 | 69 | 1010.0 |
| 20260506201251 | 28 | 9 | 11.3 | 16.1 | 0.00 | 0.00 | 0.00 | 69 | 1010.0 |
| 20260506195350 | 28 | 9 | 11.3 | 16.1 | 0.00 | 0.00 | 0.00 | 69 | 1009.0 |
| 20260506195249 | 28 | 9 | 11.3 | 16.1 | 0.00 | 0.00 | 0.00 | 69 | 1009.0 |
| 20260506193349 | 29 | 9 | 11.3 | 16.1 | 0.00 | 0.00 | 0.00 | 69 | 1009.0 |
| 20260506193248 | 29 | 9 | 11.3 | 16.1 | 0.00 | 0.00 | 0.00 | 69 | 1009.0 |
| 20260506191348 | 30 | 9 | 11.3 | 16.1 | 0.03 | 0.00 | 0.00 | 69 | 1010.0 |
| 20260506191248 | 30 | 9 | 11.3 | 16.1 | 0.03 | 0.00 | 0.00 | 69 | 1010.0 |
| 20260506185347 | 30 | 9 | 11.3 | 16.1 | 0.00 | 0.00 | 0.00 | 69 | 1010.0 |
| 20260506185246 | 30 | 9 | 11.3 | 16.1 | 0.00 | 0.00 | 0.00 | 69 | 1010.0 |
| 20260506183346 | 31 | 9 | 11.3 | 16.1 | 0.03 | 0.00 | 0.00 | 69 | 1010.0 |
| 20260506183246 | 31 | 9 | 11.3 | 16.1 | 0.03 | 0.00 | 0.00 | 69 | 1010.0 |
| 20260506181345 | 31 | 9 | 11.3 | 16.1 | 0.00 | 0.00 | 0.00 | 69 | 1011.0 |
| 20260506181245 | 31 | 9 | 11.3 | 16.1 | 0.00 | 0.00 | 0.00 | 69 | 1011.0 |
| 20260506175344 | 26 | 10 | 11.3 | 16.1 | 0.00 | 0.00 | 0.00 | 76 | 1011.0 |
| 20260506175244 | 26 | 10 | 11.3 | 16.1 | 0.00 | 0.00 | 0.00 | 76 | 1011.0 |
| 20260506173343 | 26 | 10 | 11.3 | 16.1 | 0.00 | 0.00 | 0.00 | 76 | 1011.0 |
| 20260506173242 | 26 | 10 | 11.3 | 16.1 | 0.00 | 0.00 | 0.00 | 76 | 1011.0 |
| 20260506171342 | 27 | 10 | 11.3 | 16.1 | 0.00 | 0.00 | 0.00 | 76 | 1012.0 |
| 20260506171242 | 27 | 10 | 11.3 | 16.1 | 0.00 | 0.00 | 0.00 | 76 | 1012.0 |
| 20260506165341 | 27 | 10 | 11.3 | 16.1 | 0.00 | 0.00 | 0.00 | 76 | 1011.0 |
| 20260506165241 | 27 | 10 | 11.3 | 16.1 | 0.00 | 0.00 | 0.00 | 76 | 1011.0 |
| 20260506163340 | 28 | 10 | 11.3 | 16.1 | 0.00 | 0.00 | 0.00 | 76 | 1011.0 |
| 20260506163240 | 28 | 10 | 11.3 | 16.1 | 0.00 | 0.00 | 0.00 | 76 | 1011.0 |
| 20260506161338 | 28 | 10 | 11.3 | 16.1 | 0.00 | 0.00 | 0.00 | 76 | 1012.0 |
| 20260506161238 | 28 | 10 | 11.3 | 16.1 | 0.00 | 0.00 | 0.00 | 76 | 1012.0 |
| 20260506155338 | 29 | 10 | 11.3 | 16.1 | 0.00 | 0.00 | 0.00 | 76 | 1012.0 |
| 20260506155237 | 29 | 10 | 11.3 | 16.1 | 0.00 | 0.00 | 0.00 | 76 | 1012.0 |
| 20260506153337 | 30 | 10 | 11.3 | 16.1 | 0.00 | 0.00 | 0.00 | 76 | 1012.0 |
| 20260506153237 | 30 | 10 | 11.3 | 16.1 | 0.00 | 0.00 | 0.00 | 76 | 1012.0 |
| 20260506151336 | 30 | 10 | 11.3 | 16.1 | 0.00 | 0.00 | 0.00 | 76 | 1013.0 |
| 20260506151236 | 30 | 10 | 11.3 | 16.1 | 0.00 | 0.00 | 0.00 | 76 | 1013.0 |
| 20260506145335 | 31 | 10 | 11.3 | 16.1 | 0.00 | 0.00 | 0.00 | 76 | 1012.0 |
| 20260506145235 | 31 | 10 | 11.3 | 16.1 | 0.00 | 0.00 | 0.00 | 76 | 1012.0 |
| 20260506143334 | 25 | 22 | 8.0 | 12.9 | 0.00 | 0.00 | 0.00 | 78 | 1012.0 |
| 20260506143234 | 25 | 22 | 8.0 | 12.9 | 0.00 | 0.00 | 0.00 | 78 | 1012.0 |
| 20260506141334 | 25 | 22 | 9.7 | 14.5 | 0.00 | 0.00 | 0.00 | 78 | 1013.0 |
| 20260506141233 | 25 | 22 | 9.7 | 14.5 | 0.00 | 0.00 | 0.00 | 78 | 1013.0 |
| 20260506135332 | 25 | 22 | 8.0 | 12.9 | 0.00 | 0.00 | 0.00 | 82 | 1012.0 |
| 20260506135232 | 25 | 22 | 8.0 | 12.9 | 0.00 | 0.00 | 0.00 | 82 | 1012.0 |
| 20260506133332 | 25 | 22 | 9.7 | 14.5 | 0.00 | 0.00 | 0.00 | 82 | 1012.0 |